Terminal Aerodrome Forecast
Issued by NWS Bismarck, ND

Home | Current Version | Previous Version | Text Only | Print | Product List | Glossary Off
Versions: 1 2 3 4 5 6 7 8 9 10 11 12 13

256
FTUS43 KBIS 161729
TAFISN
TAF
KISN 161729Z 1618/1718 13014G21KT P6SM OVC100
     FM162100 18010KT P6SM BKN200
     FM170100 22007KT P6SM BKN150
     FM170400 26006KT P6SM BKN200
     FM171200 32004KT P6SM SCT200=

USA.gov is the U.S. government's official web portal to all federal, state and local government web resources and services.